KDNL/DNL METAR and TAF weather

Enter ICAO airport designator
Station Type Date Time Source
KDNL METAR 2019/04/22 23:53 UTC NOAA

KDNL 222353Z AUTO 00000KT 10SM CLR 25/08 A3012 RMK AO2 SLP194 T02500083 10272 20244 56003


Station Type Date Time Source
KDNL Decoded METAR 2019/04/22 23:53 UTC NOAA

AUGUSTA DANIEL FIELD, GA, United States (KDNL) 33-28N 82-02W 130M
Apr 22, 2019 - 07:53 PM EDT / 2019.04.22 2353 UTC
Wind: Calm:0
Visibility: 10 mile(s):0
Sky conditions: clear
Temperature: 77.0 F (25.0 C)
Dew Point: 46.9 F (8.3 C)
Relative Humidity: 34%
Pressure (altimeter): 30.12 in. Hg (1019 hPa)
Pressure tendency: 0.01 inches (0.3 hPa) lower than three hours ago
ob: KDNL 222353Z AUTO 00000KT 10SM CLR 25/08 A3012 RMK AO2 SLP194 T02500083 10272 20244 56003
cycle: 0

Station Type Date Time Source
KDNL TAF 2019/04/22 21:33 UTC NOAA

TAF
AMD KDNL 222031Z 2221/2318 VRB06KT P6SM SKC
FM231500 23006KT P6SM SKC

Example: see airport list